sensor_id;sensor_type;location;lat;lon;timestamp;P1;durP1;ratioP1;P2;durP2;ratioP2
809;SDS011;387;48.772;9.186;2023-05-23T00:00:25;55.13;;;27.20;;
809;SDS011;387;48.772;9.186;2023-05-23T00:02:50;59.10;;;26.93;;
809;SDS011;387;48.772;9.186;2023-05-23T00:05:16;58.73;;;29.00;;
809;SDS011;387;48.772;9.186;2023-05-23T00:07:45;66.07;;;28.00;;
809;SDS011;387;48.772;9.186;2023-05-23T00:10:10;64.33;;;29.70;;
809;SDS011;387;48.772;9.186;2023-05-23T00:12:37;58.87;;;28.97;;
809;SDS011;387;48.772;9.186;2023-05-23T00:15:06;64.57;;;31.47;;
809;SDS011;387;48.772;9.186;2023-05-23T00:17:33;67.47;;;30.77;;
809;SDS011;387;48.772;9.186;2023-05-23T00:20:03;72.27;;;32.50;;
809;SDS011;387;48.772;9.186;2023-05-23T00:22:36;70.17;;;31.43;;
809;SDS011;387;48.772;9.186;2023-05-23T00:25:06;64.60;;;31.80;;
809;SDS011;387;48.772;9.186;2023-05-23T00:27:35;63.10;;;30.53;;
809;SDS011;387;48.772;9.186;2023-05-23T00:30:01;77.67;;;34.47;;
809;SDS011;387;48.772;9.186;2023-05-23T00:32:27;78.33;;;36.17;;
809;SDS011;387;48.772;9.186;2023-05-23T00:34:53;66.00;;;31.37;;
809;SDS011;387;48.772;9.186;2023-05-23T00:37:19;75.97;;;34.27;;
809;SDS011;387;48.772;9.186;2023-05-23T00:39:46;76.10;;;33.37;;
809;SDS011;387;48.772;9.186;2023-05-23T00:42:12;72.13;;;34.73;;
809;SDS011;387;48.772;9.186;2023-05-23T00:44:38;77.70;;;36.70;;
809;SDS011;387;48.772;9.186;2023-05-23T00:47:04;87.70;;;37.40;;
809;SDS011;387;48.772;9.186;2023-05-23T00:49:31;81.20;;;37.87;;
809;SDS011;387;48.772;9.186;2023-05-23T00:51:57;72.33;;;32.90;;
809;SDS011;387;48.772;9.186;2023-05-23T00:54:25;78.33;;;34.10;;
809;SDS011;387;48.772;9.186;2023-05-23T00:56:54;89.30;;;37.97;;
809;SDS011;387;48.772;9.186;2023-05-23T00:59:21;79.20;;;35.60;;
809;SDS011;387;48.772;9.186;2023-05-23T01:01:51;71.13;;;34.30;;
809;SDS011;387;48.772;9.186;2023-05-23T01:04:18;76.23;;;35.03;;
809;SDS011;387;48.772;9.186;2023-05-23T01:06:44;84.97;;;36.93;;
809;SDS011;387;48.772;9.186;2023-05-23T01:09:20;91.97;;;41.90;;
809;SDS011;387;48.772;9.186;2023-05-23T01:14:50;95.20;;;39.80;;
809;SDS011;387;48.772;9.186;2023-05-23T01:17:22;78.77;;;38.40;;
809;SDS011;387;48.772;9.186;2023-05-23T01:20:01;81.70;;;38.40;;
809;SDS011;387;48.772;9.186;2023-05-23T01:22:43;87.20;;;38.57;;
809;SDS011;387;48.772;9.186;2023-05-23T01:28:23;98.07;;;40.87;;
809;SDS011;387;48.772;9.186;2023-05-23T01:30:52;88.97;;;38.63;;
809;SDS011;387;48.772;9.186;2023-05-23T01:33:21;97.70;;;41.83;;
809;SDS011;387;48.772;9.186;2023-05-23T01:35:49;91.13;;;40.77;;
809;SDS011;387;48.772;9.186;2023-05-23T01:38:15;95.53;;;41.30;;
809;SDS011;387;48.772;9.186;2023-05-23T01:40:41;106.33;;;43.17;;
809;SDS011;387;48.772;9.186;2023-05-23T01:43:06;101.23;;;42.93;;
809;SDS011;387;48.772;9.186;2023-05-23T01:45:32;100.40;;;46.90;;
809;SDS011;387;48.772;9.186;2023-05-23T01:47:58;95.40;;;42.63;;
809;SDS011;387;48.772;9.186;2023-05-23T01:50:25;91.43;;;40.23;;
809;SDS011;387;48.772;9.186;2023-05-23T01:52:50;100.00;;;45.43;;
809;SDS011;387;48.772;9.186;2023-05-23T01:55:18;94.67;;;40.10;;
809;SDS011;387;48.772;9.186;2023-05-23T01:57:52;100.20;;;44.20;;
809;SDS011;387;48.772;9.186;2023-05-23T02:00:20;102.53;;;41.90;;
809;SDS011;387;48.772;9.186;2023-05-23T02:02:47;101.87;;;44.50;;
809;SDS011;387;48.772;9.186;2023-05-23T02:05:12;109.80;;;46.30;;
809;SDS011;387;48.772;9.186;2023-05-23T02:07:38;124.23;;;47.37;;
809;SDS011;387;48.772;9.186;2023-05-23T02:10:06;99.83;;;47.83;;
809;SDS011;387;48.772;9.186;2023-05-23T02:12:33;114.23;;;48.40;;
809;SDS011;387;48.772;9.186;2023-05-23T02:14:58;120.00;;;47.70;;
809;SDS011;387;48.772;9.186;2023-05-23T02:17:24;111.73;;;45.70;;
809;SDS011;387;48.772;9.186;2023-05-23T02:19:50;104.10;;;43.50;;
809;SDS011;387;48.772;9.186;2023-05-23T02:22:15;108.10;;;46.77;;
809;SDS011;387;48.772;9.186;2023-05-23T02:24:41;110.03;;;45.37;;
809;SDS011;387;48.772;9.186;2023-05-23T02:27:07;107.67;;;46.50;;
809;SDS011;387;48.772;9.186;2023-05-23T02:29:33;112.70;;;47.00;;
809;SDS011;387;48.772;9.186;2023-05-23T02:31:58;114.37;;;49.40;;
809;SDS011;387;48.772;9.186;2023-05-23T02:34:24;117.03;;;48.73;;
809;SDS011;387;48.772;9.186;2023-05-23T02:36:50;135.37;;;52.23;;
809;SDS011;387;48.772;9.186;2023-05-23T02:39:16;113.20;;;51.50;;
809;SDS011;387;48.772;9.186;2023-05-23T02:41:41;110.33;;;46.63;;
809;SDS011;387;48.772;9.186;2023-05-23T02:44:07;123.63;;;53.63;;
809;SDS011;387;48.772;9.186;2023-05-23T02:46:32;115.60;;;47.63;;
809;SDS011;387;48.772;9.186;2023-05-23T02:48:58;108.30;;;48.77;;
809;SDS011;387;48.772;9.186;2023-05-23T02:51:24;104.20;;;44.10;;
809;SDS011;387;48.772;9.186;2023-05-23T02:53:50;127.13;;;50.77;;
809;SDS011;387;48.772;9.186;2023-05-23T02:56:15;114.90;;;51.40;;
809;SDS011;387;48.772;9.186;2023-05-23T02:58:41;127.90;;;50.60;;
809;SDS011;387;48.772;9.186;2023-05-23T03:01:06;116.60;;;48.30;;
809;SDS011;387;48.772;9.186;2023-05-23T03:03:32;113.10;;;49.60;;
809;SDS011;387;48.772;9.186;2023-05-23T03:05:58;111.67;;;49.50;;
809;SDS011;387;48.772;9.186;2023-05-23T03:08:24;109.37;;;49.67;;
809;SDS011;387;48.772;9.186;2023-05-23T03:10:50;124.83;;;49.73;;
809;SDS011;387;48.772;9.186;2023-05-23T03:13:16;111.43;;;47.00;;
809;SDS011;387;48.772;9.186;2023-05-23T03:15:42;105.37;;;47.93;;
809;SDS011;387;48.772;9.186;2023-05-23T03:18:08;112.67;;;48.50;;
809;SDS011;387;48.772;9.186;2023-05-23T03:20:34;125.30;;;52.27;;
809;SDS011;387;48.772;9.186;2023-05-23T03:23:00;96.33;;;44.37;;
809;SDS011;387;48.772;9.186;2023-05-23T03:25:26;119.00;;;49.60;;
809;SDS011;387;48.772;9.186;2023-05-23T03:27:51;102.00;;;48.37;;
809;SDS011;387;48.772;9.186;2023-05-23T03:30:17;93.17;;;43.60;;
809;SDS011;387;48.772;9.186;2023-05-23T03:32:44;100.87;;;48.27;;
809;SDS011;387;48.772;9.186;2023-05-23T03:35:11;87.03;;;43.30;;
809;SDS011;387;48.772;9.186;2023-05-23T03:37:37;94.33;;;45.20;;
809;SDS011;387;48.772;9.186;2023-05-23T03:40:02;96.83;;;42.13;;
809;SDS011;387;48.772;9.186;2023-05-23T03:42:28;90.93;;;40.03;;
809;SDS011;387;48.772;9.186;2023-05-23T03:44:54;90.20;;;42.40;;
809;SDS011;387;48.772;9.186;2023-05-23T03:47:20;85.43;;;40.20;;
809;SDS011;387;48.772;9.186;2023-05-23T03:49:48;103.87;;;45.43;;
809;SDS011;387;48.772;9.186;2023-05-23T03:52:13;100.97;;;45.40;;
809;SDS011;387;48.772;9.186;2023-05-23T03:54:39;89.67;;;42.83;;
809;SDS011;387;48.772;9.186;2023-05-23T03:57:05;89.50;;;41.20;;
809;SDS011;387;48.772;9.186;2023-05-23T03:59:32;103.37;;;46.50;;
809;SDS011;387;48.772;9.186;2023-05-23T04:01:57;89.63;;;42.97;;
809;SDS011;387;48.772;9.186;2023-05-23T04:04:24;94.43;;;42.53;;
809;SDS011;387;48.772;9.186;2023-05-23T04:06:51;96.70;;;43.33;;
809;SDS011;387;48.772;9.186;2023-05-23T04:09:16;96.97;;;45.83;;
809;SDS011;387;48.772;9.186;2023-05-23T04:11:42;94.23;;;44.33;;
809;SDS011;387;48.772;9.186;2023-05-23T04:14:08;98.33;;;47.40;;
809;SDS011;387;48.772;9.186;2023-05-23T04:16:34;97.83;;;44.77;;
809;SDS011;387;48.772;9.186;2023-05-23T04:19:01;95.83;;;44.77;;
809;SDS011;387;48.772;9.186;2023-05-23T04:21:28;89.77;;;40.57;;
809;SDS011;387;48.772;9.186;2023-05-23T04:23:54;80.67;;;38.70;;
809;SDS011;387;48.772;9.186;2023-05-23T04:26:20;81.67;;;38.67;;
809;SDS011;387;48.772;9.186;2023-05-23T04:28:45;85.50;;;40.87;;
809;SDS011;387;48.772;9.186;2023-05-23T04:31:12;101.47;;;44.57;;
809;SDS011;387;48.772;9.186;2023-05-23T04:33:38;97.93;;;43.93;;
809;SDS011;387;48.772;9.186;2023-05-23T04:36:04;97.07;;;45.20;;
809;SDS011;387;48.772;9.186;2023-05-23T04:38:33;98.63;;;43.93;;
809;SDS011;387;48.772;9.186;2023-05-23T04:40:59;87.33;;;43.70;;
809;SDS011;387;48.772;9.186;2023-05-23T04:43:24;89.80;;;42.93;;
809;SDS011;387;48.772;9.186;2023-05-23T04:45:53;84.27;;;41.00;;
809;SDS011;387;48.772;9.186;2023-05-23T04:48:19;91.77;;;43.23;;
809;SDS011;387;48.772;9.186;2023-05-23T04:50:47;86.67;;;42.10;;
809;SDS011;387;48.772;9.186;2023-05-23T04:53:15;89.37;;;42.40;;
809;SDS011;387;48.772;9.186;2023-05-23T04:55:40;92.93;;;42.40;;
809;SDS011;387;48.772;9.186;2023-05-23T04:58:06;89.50;;;41.97;;
809;SDS011;387;48.772;9.186;2023-05-23T05:00:32;79.57;;;40.67;;
809;SDS011;387;48.772;9.186;2023-05-23T05:02:57;82.83;;;39.90;;
809;SDS011;387;48.772;9.186;2023-05-23T05:05:23;89.53;;;37.47;;
809;SDS011;387;48.772;9.186;2023-05-23T05:07:48;79.03;;;40.90;;
809;SDS011;387;48.772;9.186;2023-05-23T05:10:14;86.43;;;41.17;;
809;SDS011;387;48.772;9.186;2023-05-23T05:12:42;84.63;;;40.87;;
809;SDS011;387;48.772;9.186;2023-05-23T05:15:10;78.87;;;37.30;;
809;SDS011;387;48.772;9.186;2023-05-23T05:17:41;78.37;;;36.70;;
809;SDS011;387;48.772;9.186;2023-05-23T05:20:07;82.00;;;39.50;;
809;SDS011;387;48.772;9.186;2023-05-23T05:22:34;88.33;;;39.40;;
809;SDS011;387;48.772;9.186;2023-05-23T05:25:01;83.90;;;41.97;;
809;SDS011;387;48.772;9.186;2023-05-23T05:27:27;88.60;;;43.70;;
809;SDS011;387;48.772;9.186;2023-05-23T05:29:53;75.27;;;36.03;;
809;SDS011;387;48.772;9.186;2023-05-23T05:32:22;86.10;;;41.13;;
809;SDS011;387;48.772;9.186;2023-05-23T05:34:48;75.60;;;39.23;;
809;SDS011;387;48.772;9.186;2023-05-23T05:37:14;88.50;;;42.00;;
809;SDS011;387;48.772;9.186;2023-05-23T05:39:40;89.07;;;41.33;;
809;SDS011;387;48.772;9.186;2023-05-23T05:42:06;82.10;;;39.70;;
809;SDS011;387;48.772;9.186;2023-05-23T05:44:32;76.67;;;39.70;;
809;SDS011;387;48.772;9.186;2023-05-23T05:46:57;82.47;;;38.70;;
809;SDS011;387;48.772;9.186;2023-05-23T05:49:23;86.93;;;43.73;;
809;SDS011;387;48.772;9.186;2023-05-23T05:51:48;75.10;;;38.87;;
809;SDS011;387;48.772;9.186;2023-05-23T05:54:14;73.60;;;38.63;;
809;SDS011;387;48.772;9.186;2023-05-23T05:56:39;80.70;;;40.83;;
809;SDS011;387;48.772;9.186;2023-05-23T05:59:06;82.27;;;41.13;;
809;SDS011;387;48.772;9.186;2023-05-23T06:01:32;80.10;;;40.27;;
809;SDS011;387;48.772;9.186;2023-05-23T06:03:58;91.77;;;44.00;;
809;SDS011;387;48.772;9.186;2023-05-23T06:06:24;84.67;;;41.77;;
809;SDS011;387;48.772;9.186;2023-05-23T06:08:50;80.67;;;41.57;;
809;SDS011;387;48.772;9.186;2023-05-23T06:11:16;88.30;;;41.53;;
809;SDS011;387;48.772;9.186;2023-05-23T06:13:41;90.27;;;41.03;;
809;SDS011;387;48.772;9.186;2023-05-23T06:16:07;88.50;;;42.33;;
809;SDS011;387;48.772;9.186;2023-05-23T06:18:32;78.80;;;37.97;;
809;SDS011;387;48.772;9.186;2023-05-23T06:20:58;77.73;;;40.97;;
809;SDS011;387;48.772;9.186;2023-05-23T06:23:24;89.10;;;42.30;;
809;SDS011;387;48.772;9.186;2023-05-23T06:25:50;86.63;;;42.00;;
809;SDS011;387;48.772;9.186;2023-05-23T06:28:15;89.83;;;42.77;;
809;SDS011;387;48.772;9.186;2023-05-23T06:30:41;87.53;;;40.07;;
809;SDS011;387;48.772;9.186;2023-05-23T06:33:06;72.87;;;38.50;;
809;SDS011;387;48.772;9.186;2023-05-23T06:35:32;88.27;;;43.43;;
809;SDS011;387;48.772;9.186;2023-05-23T06:37:58;81.53;;;43.97;;
809;SDS011;387;48.772;9.186;2023-05-23T06:40:23;81.03;;;40.97;;
809;SDS011;387;48.772;9.186;2023-05-23T06:42:49;90.90;;;43.10;;
809;SDS011;387;48.772;9.186;2023-05-23T06:45:15;86.57;;;44.33;;
809;SDS011;387;48.772;9.186;2023-05-23T06:47:41;93.97;;;44.23;;
809;SDS011;387;48.772;9.186;2023-05-23T06:50:09;89.53;;;42.40;;
809;SDS011;387;48.772;9.186;2023-05-23T06:52:35;82.90;;;41.70;;
809;SDS011;387;48.772;9.186;2023-05-23T06:55:00;84.87;;;39.53;;
809;SDS011;387;48.772;9.186;2023-05-23T06:57:26;74.27;;;38.87;;
809;SDS011;387;48.772;9.186;2023-05-23T06:59:52;76.30;;;40.73;;
809;SDS011;387;48.772;9.186;2023-05-23T07:02:17;83.57;;;40.00;;
809;SDS011;387;48.772;9.186;2023-05-23T07:04:43;79.43;;;39.50;;
809;SDS011;387;48.772;9.186;2023-05-23T07:07:08;84.87;;;40.17;;
809;SDS011;387;48.772;9.186;2023-05-23T07:09:34;72.00;;;38.03;;
809;SDS011;387;48.772;9.186;2023-05-23T07:12:00;63.83;;;33.70;;
809;SDS011;387;48.772;9.186;2023-05-23T07:14:25;78.63;;;42.10;;
809;SDS011;387;48.772;9.186;2023-05-23T07:16:51;84.50;;;40.47;;
809;SDS011;387;48.772;9.186;2023-05-23T07:19:16;79.43;;;37.80;;
809;SDS011;387;48.772;9.186;2023-05-23T07:21:42;76.87;;;36.07;;
809;SDS011;387;48.772;9.186;2023-05-23T07:24:07;75.20;;;37.17;;
809;SDS011;387;48.772;9.186;2023-05-23T07:26:33;68.83;;;37.07;;
809;SDS011;387;48.772;9.186;2023-05-23T07:28:59;62.93;;;33.63;;
809;SDS011;387;48.772;9.186;2023-05-23T07:31:24;65.17;;;35.17;;
809;SDS011;387;48.772;9.186;2023-05-23T07:33:50;57.67;;;31.30;;
809;SDS011;387;48.772;9.186;2023-05-23T07:36:15;60.27;;;31.20;;
809;SDS011;387;48.772;9.186;2023-05-23T07:38:41;55.30;;;28.60;;
809;SDS011;387;48.772;9.186;2023-05-23T07:41:07;66.20;;;31.90;;
809;SDS011;387;48.772;9.186;2023-05-23T07:43:32;71.73;;;33.00;;
809;SDS011;387;48.772;9.186;2023-05-23T07:45:58;66.37;;;33.43;;
809;SDS011;387;48.772;9.186;2023-05-23T07:48:24;60.47;;;32.30;;
809;SDS011;387;48.772;9.186;2023-05-23T07:50:51;59.57;;;31.33;;
809;SDS011;387;48.772;9.186;2023-05-23T07:53:19;71.07;;;36.27;;
809;SDS011;387;48.772;9.186;2023-05-23T07:55:45;68.33;;;33.50;;
809;SDS011;387;48.772;9.186;2023-05-23T07:58:11;66.60;;;33.47;;
809;SDS011;387;48.772;9.186;2023-05-23T08:00:36;61.23;;;31.53;;
809;SDS011;387;48.772;9.186;2023-05-23T08:03:02;62.57;;;31.77;;
809;SDS011;387;48.772;9.186;2023-05-23T08:05:28;54.77;;;27.90;;
809;SDS011;387;48.772;9.186;2023-05-23T08:07:54;53.80;;;29.07;;
809;SDS011;387;48.772;9.186;2023-05-23T08:10:19;55.83;;;26.57;;
809;SDS011;387;48.772;9.186;2023-05-23T08:12:45;46.80;;;26.60;;
809;SDS011;387;48.772;9.186;2023-05-23T08:15:11;46.90;;;24.50;;
809;SDS011;387;48.772;9.186;2023-05-23T08:17:36;45.40;;;25.47;;
809;SDS011;387;48.772;9.186;2023-05-23T08:20:02;43.30;;;22.50;;
809;SDS011;387;48.772;9.186;2023-05-23T08:22:29;46.33;;;25.50;;
809;SDS011;387;48.772;9.186;2023-05-23T08:24:54;48.00;;;25.70;;
809;SDS011;387;48.772;9.186;2023-05-23T08:27:20;46.90;;;24.03;;
809;SDS011;387;48.772;9.186;2023-05-23T08:29:45;45.17;;;24.63;;
809;SDS011;387;48.772;9.186;2023-05-23T08:32:12;51.60;;;25.10;;
809;SDS011;387;48.772;9.186;2023-05-23T08:34:37;46.53;;;25.80;;
809;SDS011;387;48.772;9.186;2023-05-23T08:37:04;50.73;;;24.40;;
809;SDS011;387;48.772;9.186;2023-05-23T08:39:30;41.30;;;23.33;;
809;SDS011;387;48.772;9.186;2023-05-23T08:41:56;42.80;;;22.83;;
809;SDS011;387;48.772;9.186;2023-05-23T08:44:22;43.63;;;22.40;;
809;SDS011;387;48.772;9.186;2023-05-23T08:46:47;48.80;;;22.50;;
809;SDS011;387;48.772;9.186;2023-05-23T08:49:17;45.27;;;24.80;;
809;SDS011;387;48.772;9.186;2023-05-23T08:51:44;43.70;;;23.13;;
809;SDS011;387;48.772;9.186;2023-05-23T08:54:10;46.80;;;22.80;;
809;SDS011;387;48.772;9.186;2023-05-23T08:56:39;42.30;;;22.43;;
809;SDS011;387;48.772;9.186;2023-05-23T08:59:06;42.40;;;22.47;;
809;SDS011;387;48.772;9.186;2023-05-23T09:01:33;40.00;;;23.30;;
809;SDS011;387;48.772;9.186;2023-05-23T09:04:00;47.00;;;24.70;;
809;SDS011;387;48.772;9.186;2023-05-23T09:06:29;43.70;;;22.23;;
809;SDS011;387;48.772;9.186;2023-05-23T09:08:54;47.50;;;24.60;;
809;SDS011;387;48.772;9.186;2023-05-23T09:11:21;50.17;;;23.90;;
809;SDS011;387;48.772;9.186;2023-05-23T09:13:48;40.07;;;20.57;;
809;SDS011;387;48.772;9.186;2023-05-23T09:16:14;44.53;;;23.10;;
809;SDS011;387;48.772;9.186;2023-05-23T09:18:42;42.60;;;23.70;;
809;SDS011;387;48.772;9.186;2023-05-23T09:21:09;40.00;;;22.50;;
809;SDS011;387;48.772;9.186;2023-05-23T09:23:36;38.10;;;20.50;;
809;SDS011;387;48.772;9.186;2023-05-23T09:26:04;39.50;;;22.50;;
809;SDS011;387;48.772;9.186;2023-05-23T09:28:32;35.60;;;20.43;;
809;SDS011;387;48.772;9.186;2023-05-23T09:31:02;39.40;;;20.70;;
809;SDS011;387;48.772;9.186;2023-05-23T09:33:39;37.60;;;21.17;;
809;SDS011;387;48.772;9.186;2023-05-23T09:36:07;36.37;;;21.07;;
809;SDS011;387;48.772;9.186;2023-05-23T09:38:36;37.77;;;19.77;;
809;SDS011;387;48.772;9.186;2023-05-23T09:41:03;41.27;;;20.33;;
809;SDS011;387;48.772;9.186;2023-05-23T09:43:29;36.67;;;20.17;;
809;SDS011;387;48.772;9.186;2023-05-23T09:45:59;39.33;;;18.63;;
809;SDS011;387;48.772;9.186;2023-05-23T09:48:32;32.60;;;17.13;;
809;SDS011;387;48.772;9.186;2023-05-23T09:50:57;31.03;;;18.77;;
809;SDS011;387;48.772;9.186;2023-05-23T09:53:23;32.90;;;18.37;;
809;SDS011;387;48.772;9.186;2023-05-23T09:55:52;36.00;;;19.13;;
809;SDS011;387;48.772;9.186;2023-05-23T09:58:20;30.43;;;17.77;;
809;SDS011;387;48.772;9.186;2023-05-23T10:00:51;29.97;;;16.77;;
809;SDS011;387;48.772;9.186;2023-05-23T10:03:22;30.00;;;17.73;;
809;SDS011;387;48.772;9.186;2023-05-23T10:06:03;31.10;;;18.10;;
809;SDS011;387;48.772;9.186;2023-05-23T10:08:37;26.50;;;15.70;;
809;SDS011;387;48.772;9.186;2023-05-23T10:13:42;26.90;;;15.63;;
809;SDS011;387;48.772;9.186;2023-05-23T10:19:12;30.17;;;16.37;;
809;SDS011;387;48.772;9.186;2023-05-23T10:21:48;27.07;;;15.97;;
809;SDS011;387;48.772;9.186;2023-05-23T10:24:14;24.43;;;15.00;;
809;SDS011;387;48.772;9.186;2023-05-23T10:26:42;27.40;;;14.33;;
809;SDS011;387;48.772;9.186;2023-05-23T10:29:09;30.77;;;15.43;;
809;SDS011;387;48.772;9.186;2023-05-23T10:31:34;23.83;;;15.00;;
809;SDS011;387;48.772;9.186;2023-05-23T10:34:09;27.10;;;14.47;;
809;SDS011;387;48.772;9.186;2023-05-23T10:40:20;24.00;;;13.33;;
809;SDS011;387;48.772;9.186;2023-05-23T10:42:19;21.37;;;13.97;;
809;SDS011;387;48.772;9.186;2023-05-23T10:44:50;20.07;;;12.40;;
809;SDS011;387;48.772;9.186;2023-05-23T10:47:27;16.80;;;11.00;;
809;SDS011;387;48.772;9.186;2023-05-23T10:49:53;21.07;;;12.60;;
809;SDS011;387;48.772;9.186;2023-05-23T10:52:19;20.33;;;12.60;;
809;SDS011;387;48.772;9.186;2023-05-23T10:54:51;25.17;;;13.23;;
809;SDS011;387;48.772;9.186;2023-05-23T10:57:19;17.60;;;12.40;;
809;SDS011;387;48.772;9.186;2023-05-23T10:59:46;20.90;;;12.57;;
809;SDS011;387;48.772;9.186;2023-05-23T11:02:15;20.40;;;12.03;;
809;SDS011;387;48.772;9.186;2023-05-23T11:04:43;22.87;;;12.97;;
809;SDS011;387;48.772;9.186;2023-05-23T11:07:27;17.07;;;11.43;;
809;SDS011;387;48.772;9.186;2023-05-23T11:10:10;22.23;;;13.63;;
809;SDS011;387;48.772;9.186;2023-05-23T11:12:41;19.27;;;13.47;;
809;SDS011;387;48.772;9.186;2023-05-23T11:17:54;19.57;;;12.47;;
809;SDS011;387;48.772;9.186;2023-05-23T11:20:22;23.13;;;12.37;;
809;SDS011;387;48.772;9.186;2023-05-23T11:23:00;20.43;;;11.80;;
809;SDS011;387;48.772;9.186;2023-05-23T11:25:44;17.70;;;11.00;;
809;SDS011;387;48.772;9.186;2023-05-23T11:28:12;16.73;;;11.47;;
809;SDS011;387;48.772;9.186;2023-05-23T11:30:38;16.47;;;10.50;;
809;SDS011;387;48.772;9.186;2023-05-23T11:33:06;17.17;;;11.47;;
809;SDS011;387;48.772;9.186;2023-05-23T11:35:34;18.30;;;11.20;;
809;SDS011;387;48.772;9.186;2023-05-23T11:38:01;15.60;;;11.13;;
809;SDS011;387;48.772;9.186;2023-05-23T11:42:58;25.03;;;12.53;;
809;SDS011;387;48.772;9.186;2023-05-23T11:45:25;21.83;;;12.40;;
809;SDS011;387;48.772;9.186;2023-05-23T11:47:51;23.90;;;13.40;;
809;SDS011;387;48.772;9.186;2023-05-23T11:50:17;24.30;;;14.57;;
809;SDS011;387;48.772;9.186;2023-05-23T11:52:46;40.03;;;14.03;;
809;SDS011;387;48.772;9.186;2023-05-23T11:55:16;23.77;;;13.10;;
809;SDS011;387;48.772;9.186;2023-05-23T11:57:45;20.37;;;13.17;;
809;SDS011;387;48.772;9.186;2023-05-23T12:00:11;21.00;;;12.73;;
809;SDS011;387;48.772;9.186;2023-05-23T12:02:41;23.13;;;11.70;;
809;SDS011;387;48.772;9.186;2023-05-23T12:07:35;21.53;;;12.33;;
809;SDS011;387;48.772;9.186;2023-05-23T12:10:04;19.83;;;12.67;;
809;SDS011;387;48.772;9.186;2023-05-23T12:12:30;21.03;;;13.13;;
809;SDS011;387;48.772;9.186;2023-05-23T12:14:56;16.60;;;11.23;;
809;SDS011;387;48.772;9.186;2023-05-23T12:17:22;20.23;;;12.77;;
809;SDS011;387;48.772;9.186;2023-05-23T12:19:48;18.60;;;12.20;;
809;SDS011;387;48.772;9.186;2023-05-23T12:22:14;16.27;;;10.70;;
809;SDS011;387;48.772;9.186;2023-05-23T12:24:46;16.73;;;11.00;;
809;SDS011;387;48.772;9.186;2023-05-23T12:27:11;15.87;;;10.87;;
809;SDS011;387;48.772;9.186;2023-05-23T12:29:37;14.07;;;9.80;;
809;SDS011;387;48.772;9.186;2023-05-23T12:32:09;15.67;;;11.17;;
809;SDS011;387;48.772;9.186;2023-05-23T12:34:40;14.87;;;9.50;;
809;SDS011;387;48.772;9.186;2023-05-23T12:37:07;13.97;;;10.00;;
809;SDS011;387;48.772;9.186;2023-05-23T12:39:33;20.00;;;9.93;;
809;SDS011;387;48.772;9.186;2023-05-23T12:42:07;17.83;;;11.20;;
809;SDS011;387;48.772;9.186;2023-05-23T12:44:33;19.50;;;11.10;;
809;SDS011;387;48.772;9.186;2023-05-23T12:46:59;18.73;;;10.73;;
809;SDS011;387;48.772;9.186;2023-05-23T12:49:25;15.23;;;9.23;;
809;SDS011;387;48.772;9.186;2023-05-23T12:51:51;15.40;;;8.50;;
809;SDS011;387;48.772;9.186;2023-05-23T12:54:16;13.73;;;8.87;;
809;SDS011;387;48.772;9.186;2023-05-23T12:56:42;14.60;;;10.73;;
809;SDS011;387;48.772;9.186;2023-05-23T12:59:07;15.90;;;10.10;;
809;SDS011;387;48.772;9.186;2023-05-23T13:01:33;16.10;;;9.17;;
809;SDS011;387;48.772;9.186;2023-05-23T13:03:59;11.20;;;7.67;;
809;SDS011;387;48.772;9.186;2023-05-23T13:06:26;13.53;;;8.60;;
809;SDS011;387;48.772;9.186;2023-05-23T13:08:52;13.03;;;8.70;;
809;SDS011;387;48.772;9.186;2023-05-23T13:11:19;13.73;;;8.90;;
809;SDS011;387;48.772;9.186;2023-05-23T13:13:46;12.80;;;8.50;;
809;SDS011;387;48.772;9.186;2023-05-23T13:16:12;12.43;;;8.27;;
809;SDS011;387;48.772;9.186;2023-05-23T13:18:37;12.67;;;7.60;;
809;SDS011;387;48.772;9.186;2023-05-23T13:21:03;13.30;;;9.00;;
809;SDS011;387;48.772;9.186;2023-05-23T13:23:29;14.10;;;8.47;;
809;SDS011;387;48.772;9.186;2023-05-23T13:25:54;14.57;;;8.90;;
809;SDS011;387;48.772;9.186;2023-05-23T13:28:22;12.87;;;7.97;;
809;SDS011;387;48.772;9.186;2023-05-23T13:30:47;13.80;;;8.00;;
809;SDS011;387;48.772;9.186;2023-05-23T13:33:13;12.57;;;7.77;;
809;SDS011;387;48.772;9.186;2023-05-23T13:35:39;11.83;;;7.83;;
809;SDS011;387;48.772;9.186;2023-05-23T13:38:04;12.10;;;8.30;;
809;SDS011;387;48.772;9.186;2023-05-23T13:40:30;13.57;;;8.37;;
809;SDS011;387;48.772;9.186;2023-05-23T13:42:55;11.00;;;7.80;;
809;SDS011;387;48.772;9.186;2023-05-23T13:45:21;10.63;;;7.60;;
809;SDS011;387;48.772;9.186;2023-05-23T13:47:47;10.60;;;7.10;;
809;SDS011;387;48.772;9.186;2023-05-23T13:50:12;13.00;;;7.77;;
809;SDS011;387;48.772;9.186;2023-05-23T13:52:39;11.50;;;7.80;;
809;SDS011;387;48.772;9.186;2023-05-23T13:55:04;11.93;;;7.50;;
809;SDS011;387;48.772;9.186;2023-05-23T13:57:31;10.57;;;7.47;;
809;SDS011;387;48.772;9.186;2023-05-23T13:59:57;11.10;;;6.60;;
809;SDS011;387;48.772;9.186;2023-05-23T14:02:22;10.40;;;7.47;;
809;SDS011;387;48.772;9.186;2023-05-23T14:04:48;14.97;;;7.40;;
809;SDS011;387;48.772;9.186;2023-05-23T14:07:14;10.20;;;7.97;;
809;SDS011;387;48.772;9.186;2023-05-23T14:09:41;11.67;;;7.63;;
809;SDS011;387;48.772;9.186;2023-05-23T14:12:06;10.30;;;7.10;;
809;SDS011;387;48.772;9.186;2023-05-23T14:14:32;11.93;;;7.30;;
809;SDS011;387;48.772;9.186;2023-05-23T14:16:57;11.87;;;6.80;;
809;SDS011;387;48.772;9.186;2023-05-23T14:19:23;11.80;;;7.33;;
809;SDS011;387;48.772;9.186;2023-05-23T14:21:48;10.90;;;6.80;;
809;SDS011;387;48.772;9.186;2023-05-23T14:24:14;9.10;;;6.53;;
809;SDS011;387;48.772;9.186;2023-05-23T14:26:40;9.47;;;6.57;;
809;SDS011;387;48.772;9.186;2023-05-23T14:29:06;11.47;;;7.60;;
809;SDS011;387;48.772;9.186;2023-05-23T14:31:31;10.00;;;7.03;;
809;SDS011;387;48.772;9.186;2023-05-23T14:33:57;9.67;;;6.70;;
809;SDS011;387;48.772;9.186;2023-05-23T14:36:23;10.40;;;6.90;;
809;SDS011;387;48.772;9.186;2023-05-23T14:38:52;12.50;;;7.47;;
809;SDS011;387;48.772;9.186;2023-05-23T14:41:18;10.50;;;6.50;;
809;SDS011;387;48.772;9.186;2023-05-23T14:43:43;9.67;;;7.30;;
809;SDS011;387;48.772;9.186;2023-05-23T14:46:09;10.37;;;7.37;;
809;SDS011;387;48.772;9.186;2023-05-23T14:48:35;12.73;;;7.60;;
809;SDS011;387;48.772;9.186;2023-05-23T14:51:01;9.90;;;6.77;;
809;SDS011;387;48.772;9.186;2023-05-23T14:53:28;10.53;;;6.83;;
809;SDS011;387;48.772;9.186;2023-05-23T14:55:54;9.13;;;6.70;;
809;SDS011;387;48.772;9.186;2023-05-23T14:58:22;10.70;;;7.33;;
809;SDS011;387;48.772;9.186;2023-05-23T15:00:49;10.60;;;6.47;;
809;SDS011;387;48.772;9.186;2023-05-23T15:03:16;12.00;;;7.87;;
809;SDS011;387;48.772;9.186;2023-05-23T15:05:42;9.73;;;6.80;;
809;SDS011;387;48.772;9.186;2023-05-23T15:08:07;10.43;;;7.57;;
809;SDS011;387;48.772;9.186;2023-05-23T15:10:34;12.00;;;6.67;;
809;SDS011;387;48.772;9.186;2023-05-23T15:13:00;9.90;;;7.13;;
809;SDS011;387;48.772;9.186;2023-05-23T15:15:27;10.80;;;6.57;;
809;SDS011;387;48.772;9.186;2023-05-23T15:18:01;15.53;;;7.10;;
809;SDS011;387;48.772;9.186;2023-05-23T15:20:31;10.13;;;6.70;;
809;SDS011;387;48.772;9.186;2023-05-23T15:22:57;9.50;;;7.17;;
809;SDS011;387;48.772;9.186;2023-05-23T15:25:22;12.50;;;7.13;;
809;SDS011;387;48.772;9.186;2023-05-23T15:27:50;10.80;;;6.70;;
809;SDS011;387;48.772;9.186;2023-05-23T15:30:16;10.97;;;6.90;;
809;SDS011;387;48.772;9.186;2023-05-23T15:32:42;12.60;;;6.30;;
809;SDS011;387;48.772;9.186;2023-05-23T15:35:07;9.60;;;5.50;;
809;SDS011;387;48.772;9.186;2023-05-23T15:37:33;6.40;;;5.10;;